Time,TemperatureF,DewpointF,PressureIn,WindDirection,WindDirectionDegrees,WindSpeedMPH,WindSpeedGustMPH,Humidity,HourlyPrecipIn,Conditions,Clouds,dailyrainin,SoftwareType,DateUTC
2013-03-27 00:02:00,49.0,40.0,-100.00,WSW,253,7.0,11.0,70,0.00,,,0.00,,2013-03-27 07:02:00,
2013-03-27 00:12:00,49.0,40.0,-100.00,WSW,253,7.0,11.0,70,0.00,,,0.00,,2013-03-27 07:12:00,
2013-03-27 00:43:00,48.0,39.0,-100.00,SSW,213,7.0,10.0,72,0.00,,,0.00,,2013-03-27 07:43:00,
2013-03-27 00:53:00,48.0,39.0,-100.00,SSW,213,7.0,10.0,72,0.00,,,0.00,,2013-03-27 07:53:00,
2013-03-27 01:02:00,48.0,39.0,-100.00,SSW,213,7.0,10.0,72,0.00,,,0.00,,2013-03-27 08:02:00,
2013-03-27 01:12:00,48.0,39.0,-100.00,SSW,213,7.0,10.0,72,0.00,,,0.00,,2013-03-27 08:12:00,
2013-03-27 01:43:00,48.0,41.0,-100.00,SW,233,8.0,12.0,77,0.00,,,0.00,,2013-03-27 08:43:00,
2013-03-27 01:52:00,48.0,41.0,-100.00,SW,233,8.0,12.0,77,0.00,,,0.00,,2013-03-27 08:52:00,
2013-03-27 02:01:00,48.0,41.0,-100.00,SW,233,8.0,12.0,77,0.00,,,0.00,,2013-03-27 09:01:00,
2013-03-27 02:11:00,48.0,41.0,-100.00,SW,233,8.0,12.0,77,0.00,,,0.00,,2013-03-27 09:11:00,
2013-03-27 02:42:00,48.0,41.0,-100.00,WSW,250,4.0,7.0,77,0.00,,,0.00,,2013-03-27 09:42:00,
2013-03-27 02:52:00,48.0,41.0,-100.00,WSW,250,4.0,7.0,77,0.00,,,0.00,,2013-03-27 09:52:00,
2013-03-27 03:02:00,48.0,41.0,-100.00,WSW,250,4.0,7.0,77,0.00,,,0.00,,2013-03-27 10:02:00,
2013-03-27 03:12:00,48.0,41.0,-100.00,WSW,250,4.0,7.0,77,0.00,,,0.00,,2013-03-27 10:12:00,
2013-03-27 03:42:00,47.0,41.0,-100.00,South,182,6.0,7.0,81,0.00,,,0.00,,2013-03-27 10:42:00,
2013-03-27 03:53:00,47.0,41.0,-100.00,South,182,6.0,7.0,81,0.00,,,0.00,,2013-03-27 10:53:00,
2013-03-27 04:02:00,47.0,41.0,-100.00,South,182,6.0,7.0,81,0.00,,,0.00,,2013-03-27 11:02:00,
2013-03-27 04:11:00,47.0,41.0,-100.00,South,182,6.0,7.0,81,0.00,,,0.00,,2013-03-27 11:11:00,
2013-03-27 04:42:00,47.0,41.0,-100.00,SSE,168,7.0,12.0,81,0.00,,,0.00,,2013-03-27 11:42:00,
2013-03-27 04:52:00,47.0,41.0,-100.00,SSE,168,7.0,12.0,81,0.00,,,0.00,,2013-03-27 11:52:00,
2013-03-27 05:02:00,47.0,41.0,-100.00,SSE,168,7.0,12.0,81,0.00,,,0.00,,2013-03-27 12:02:00,
2013-03-27 05:11:00,47.0,41.0,-100.00,SSE,168,7.0,12.0,81,0.00,,,0.00,,2013-03-27 12:11:00,
2013-03-27 05:43:00,47.0,41.0,-100.00,SE,145,7.0,15.0,81,0.00,,,0.00,,2013-03-27 12:43:00,
2013-03-27 05:52:00,47.0,41.0,-100.00,SE,145,7.0,15.0,81,0.00,,,0.00,,2013-03-27 12:52:00,
2013-03-27 06:02:00,47.0,41.0,-100.00,SE,145,7.0,15.0,81,0.00,,,0.00,,2013-03-27 13:02:00,
2013-03-27 06:12:00,47.0,41.0,-100.00,SE,145,7.0,15.0,81,0.00,,,0.00,,2013-03-27 13:12:00,
2013-03-27 06:42:00,47.0,41.0,-100.00,SW,234,3.0,12.0,80,0.00,,,0.00,,2013-03-27 13:42:00,
2013-03-27 06:53:00,47.0,41.0,-100.00,SW,234,3.0,12.0,80,0.00,,,0.00,,2013-03-27 13:53:00,
2013-03-27 07:02:00,47.0,41.0,-100.00,SW,234,3.0,12.0,80,0.00,,,0.00,,2013-03-27 14:02:00,
2013-03-27 07:11:00,47.0,41.0,-100.00,SW,234,3.0,12.0,80,0.00,,,0.00,,2013-03-27 14:11:00,
2013-03-27 07:42:00,49.0,43.0,-100.00,SSW,200,4.0,9.0,79,0.00,,,0.00,,2013-03-27 14:42:00,
2013-03-27 07:52:00,49.0,43.0,-100.00,SSW,200,4.0,9.0,79,0.00,,,0.00,,2013-03-27 14:52:00,
2013-03-27 08:02:00,49.0,43.0,-100.00,SSW,200,4.0,9.0,79,0.00,,,0.00,,2013-03-27 15:02:00,
2013-03-27 08:11:00,49.0,43.0,-100.00,SSW,200,4.0,9.0,79,0.00,,,0.00,,2013-03-27 15:11:00,
2013-03-27 08:43:00,50.0,42.0,-100.00,SW,222,2.0,5.0,75,0.00,,,0.00,,2013-03-27 15:43:00,
2013-03-27 08:52:00,50.0,42.0,-100.00,SW,222,2.0,5.0,75,0.00,,,0.00,,2013-03-27 15:52:00,
2013-03-27 09:02:00,50.0,42.0,-100.00,SW,222,2.0,5.0,75,0.00,,,0.00,,2013-03-27 16:02:00,
2013-03-27 09:12:00,50.0,42.0,-100.00,SW,222,2.0,5.0,75,0.00,,,0.00,,2013-03-27 16:12:00,
2013-03-27 11:42:00,57.0,47.0,-100.00,West,265,10.0,14.0,69,-99.99,,,-99.99,,2013-03-27 18:42:00,
2013-03-27 11:53:00,57.0,47.0,-100.00,West,265,10.0,14.0,69,-99.99,,,-99.99,,2013-03-27 18:53:00,
2013-03-27 12:02:00,57.0,47.0,-100.00,West,265,10.0,14.0,69,-99.99,,,-99.99,,2013-03-27 19:02:00,
2013-03-27 12:12:00,57.0,47.0,-100.00,West,265,10.0,14.0,69,-99.99,,,-99.99,,2013-03-27 19:12:00,
2013-03-27 12:52:00,58.0,46.0,-100.00,SW,236,17.0,23.0,65,0.00,,,0.00,,2013-03-27 19:52:00,
2013-03-27 13:02:00,58.0,46.0,-100.00,SW,236,17.0,23.0,65,0.00,,,0.00,,2013-03-27 20:02:00,
2013-03-27 13:12:00,58.0,46.0,-100.00,SW,236,17.0,23.0,65,0.00,,,0.00,,2013-03-27 20:12:00,
2013-03-27 13:43:00,61.0,46.0,-100.00,SW,233,15.0,24.0,58,0.00,,,0.00,,2013-03-27 20:43:00,
2013-03-27 13:52:00,61.0,46.0,-100.00,SW,233,15.0,24.0,58,0.00,,,0.00,,2013-03-27 20:52:00,
2013-03-27 14:02:00,61.0,46.0,-100.00,SW,233,15.0,24.0,58,0.00,,,0.00,,2013-03-27 21:02:00,
2013-03-27 14:12:00,61.0,46.0,-100.00,SW,233,15.0,24.0,58,0.00,,,0.00,,2013-03-27 21:12:00,
2013-03-27 14:43:00,60.0,47.0,-100.00,WSW,241,15.0,25.0,61,0.00,,,0.00,,2013-03-27 21:43:00,
2013-03-27 14:52:00,60.0,47.0,-100.00,WSW,241,15.0,25.0,61,0.00,,,0.00,,2013-03-27 21:52:00,
2013-03-27 15:02:00,60.0,47.0,-100.00,WSW,241,15.0,25.0,61,0.00,,,0.00,,2013-03-27 22:02:00,
2013-03-27 15:12:00,60.0,47.0,-100.00,WSW,241,15.0,25.0,61,0.00,,,0.00,,2013-03-27 22:12:00,
2013-03-27 15:42:00,59.0,47.0,-100.00,WSW,237,14.0,23.0,65,0.00,,,0.00,,2013-03-27 22:42:00,
2013-03-27 15:52:00,59.0,47.0,-100.00,WSW,237,14.0,23.0,65,0.00,,,0.00,,2013-03-27 22:52:00,
2013-03-27 16:02:00,59.0,47.0,-100.00,WSW,237,14.0,23.0,65,0.00,,,0.00,,2013-03-27 23:02:00,
2013-03-27 16:11:00,59.0,47.0,-100.00,WSW,237,14.0,23.0,65,0.00,,,0.00,,2013-03-27 23:11:00,
2013-03-27 16:42:00,58.0,49.0,-100.00,WSW,246,15.0,21.0,71,0.00,,,0.00,,2013-03-27 23:42:00,
2013-03-27 16:52:00,58.0,49.0,-100.00,WSW,246,15.0,21.0,71,0.00,,,0.00,,2013-03-27 23:52:00,
2013-03-27 17:02:00,58.0,49.0,-100.00,WSW,246,15.0,21.0,71,0.00,,,0.00,,2013-03-28 00:02:00,
2013-03-27 17:12:00,58.0,49.0,-100.00,WSW,246,15.0,21.0,71,0.00,,,0.00,,2013-03-28 00:12:00,